sensor_id;sensor_type;location;lat;lon;timestamp;P1;durP1;ratioP1;P2;durP2;ratioP2
33844;SDS011;20145;43.118;25.694;2023-08-12T00:00:10;3.10;;;2.67;;
33844;SDS011;20145;43.118;25.694;2023-08-12T00:02:37;6.55;;;2.70;;
33844;SDS011;20145;43.118;25.694;2023-08-12T00:05:04;3.60;;;2.58;;
33844;SDS011;20145;43.118;25.694;2023-08-12T00:07:31;2.92;;;2.70;;
33844;SDS011;20145;43.118;25.694;2023-08-12T00:09:58;2.78;;;2.58;;
33844;SDS011;20145;43.118;25.694;2023-08-12T00:12:25;4.15;;;2.78;;
33844;SDS011;20145;43.118;25.694;2023-08-12T00:14:51;5.70;;;2.65;;
33844;SDS011;20145;43.118;25.694;2023-08-12T00:17:16;4.72;;;2.65;;
33844;SDS011;20145;43.118;25.694;2023-08-12T00:19:42;3.13;;;2.83;;
33844;SDS011;20145;43.118;25.694;2023-08-12T00:22:07;3.53;;;2.50;;
33844;SDS011;20145;43.118;25.694;2023-08-12T00:24:33;2.40;;;2.08;;
33844;SDS011;20145;43.118;25.694;2023-08-12T00:26:58;4.05;;;2.63;;
33844;SDS011;20145;43.118;25.694;2023-08-12T00:29:24;3.15;;;2.75;;
33844;SDS011;20145;43.118;25.694;2023-08-12T00:31:49;3.25;;;2.63;;
33844;SDS011;20145;43.118;25.694;2023-08-12T00:34:16;3.35;;;2.63;;
33844;SDS011;20145;43.118;25.694;2023-08-12T00:36:43;7.57;;;2.65;;
33844;SDS011;20145;43.118;25.694;2023-08-12T00:39:09;3.13;;;2.53;;
33844;SDS011;20145;43.118;25.694;2023-08-12T00:41:35;2.80;;;2.55;;
33844;SDS011;20145;43.118;25.694;2023-08-12T00:44:01;2.65;;;2.42;;
33844;SDS011;20145;43.118;25.694;2023-08-12T00:46:27;3.65;;;2.50;;
33844;SDS011;20145;43.118;25.694;2023-08-12T00:48:53;2.88;;;2.60;;
33844;SDS011;20145;43.118;25.694;2023-08-12T00:51:19;5.68;;;3.20;;
33844;SDS011;20145;43.118;25.694;2023-08-12T00:53:45;3.05;;;2.70;;
33844;SDS011;20145;43.118;25.694;2023-08-12T00:56:12;4.30;;;2.70;;
33844;SDS011;20145;43.118;25.694;2023-08-12T00:58:38;3.33;;;3.03;;
33844;SDS011;20145;43.118;25.694;2023-08-12T01:01:05;2.70;;;2.50;;
33844;SDS011;20145;43.118;25.694;2023-08-12T01:03:31;2.58;;;2.38;;
33844;SDS011;20145;43.118;25.694;2023-08-12T01:05:57;3.15;;;2.85;;
33844;SDS011;20145;43.118;25.694;2023-08-12T01:08:23;3.33;;;2.58;;
33844;SDS011;20145;43.118;25.694;2023-08-12T01:10:57;2.92;;;2.38;;
33844;SDS011;20145;43.118;25.694;2023-08-12T01:13:57;3.78;;;3.00;;
33844;SDS011;20145;43.118;25.694;2023-08-12T01:16:30;3.78;;;3.05;;
33844;SDS011;20145;43.118;25.694;2023-08-12T01:19:00;5.23;;;2.50;;
33844;SDS011;20145;43.118;25.694;2023-08-12T01:21:29;3.05;;;2.75;;
33844;SDS011;20145;43.118;25.694;2023-08-12T01:23:56;6.75;;;3.25;;
33844;SDS011;20145;43.118;25.694;2023-08-12T01:26:22;3.25;;;2.95;;
33844;SDS011;20145;43.118;25.694;2023-08-12T01:28:49;8.13;;;3.00;;
33844;SDS011;20145;43.118;25.694;2023-08-12T01:31:40;3.42;;;2.70;;
33844;SDS011;20145;43.118;25.694;2023-08-12T01:34:11;4.95;;;4.22;;
33844;SDS011;20145;43.118;25.694;2023-08-12T01:36:44;7.20;;;3.05;;
33844;SDS011;20145;43.118;25.694;2023-08-12T01:39:15;4.65;;;2.90;;
33844;SDS011;20145;43.118;25.694;2023-08-12T01:41:44;2.83;;;2.50;;
33844;SDS011;20145;43.118;25.694;2023-08-12T01:44:10;3.00;;;2.58;;
33844;SDS011;20145;43.118;25.694;2023-08-12T01:46:43;2.85;;;2.55;;
33844;SDS011;20145;43.118;25.694;2023-08-12T01:49:13;3.60;;;2.35;;
33844;SDS011;20145;43.118;25.694;2023-08-12T01:51:41;2.95;;;2.40;;
33844;SDS011;20145;43.118;25.694;2023-08-12T01:54:18;2.97;;;2.58;;
33844;SDS011;20145;43.118;25.694;2023-08-12T02:01:46;2.90;;;2.55;;
33844;SDS011;20145;43.118;25.694;2023-08-12T02:04:11;2.85;;;2.65;;
33844;SDS011;20145;43.118;25.694;2023-08-12T02:06:38;2.63;;;2.42;;
33844;SDS011;20145;43.118;25.694;2023-08-12T02:09:04;4.40;;;2.60;;
33844;SDS011;20145;43.118;25.694;2023-08-12T02:11:29;3.53;;;2.70;;
33844;SDS011;20145;43.118;25.694;2023-08-12T02:13:55;2.95;;;2.63;;
33844;SDS011;20145;43.118;25.694;2023-08-12T02:16:21;2.70;;;2.50;;
33844;SDS011;20145;43.118;25.694;2023-08-12T02:18:46;3.15;;;2.80;;
33844;SDS011;20145;43.118;25.694;2023-08-12T02:21:13;4.18;;;2.60;;
33844;SDS011;20145;43.118;25.694;2023-08-12T02:23:39;3.00;;;2.45;;
33844;SDS011;20145;43.118;25.694;2023-08-12T02:26:06;3.38;;;2.58;;
33844;SDS011;20145;43.118;25.694;2023-08-12T02:28:31;4.97;;;2.95;;
33844;SDS011;20145;43.118;25.694;2023-08-12T02:30:57;2.53;;;2.30;;
33844;SDS011;20145;43.118;25.694;2023-08-12T02:33:22;4.88;;;2.90;;
33844;SDS011;20145;43.118;25.694;2023-08-12T02:35:48;3.88;;;2.63;;
33844;SDS011;20145;43.118;25.694;2023-08-12T02:38:18;2.85;;;2.58;;
33844;SDS011;20145;43.118;25.694;2023-08-12T02:40:43;3.17;;;2.90;;
33844;SDS011;20145;43.118;25.694;2023-08-12T02:43:13;3.72;;;3.10;;
33844;SDS011;20145;43.118;25.694;2023-08-12T02:45:38;3.88;;;3.20;;
33844;SDS011;20145;43.118;25.694;2023-08-12T02:48:04;3.55;;;2.90;;
33844;SDS011;20145;43.118;25.694;2023-08-12T02:50:30;4.20;;;3.15;;
33844;SDS011;20145;43.118;25.694;2023-08-12T02:52:55;3.45;;;3.13;;
33844;SDS011;20145;43.118;25.694;2023-08-12T02:55:22;4.18;;;3.22;;
33844;SDS011;20145;43.118;25.694;2023-08-12T02:57:48;3.25;;;2.92;;
33844;SDS011;20145;43.118;25.694;2023-08-12T03:00:14;7.15;;;3.35;;
33844;SDS011;20145;43.118;25.694;2023-08-12T03:02:43;2.83;;;2.63;;
33844;SDS011;20145;43.118;25.694;2023-08-12T03:05:08;3.20;;;2.90;;
33844;SDS011;20145;43.118;25.694;2023-08-12T03:07:34;5.53;;;4.00;;
33844;SDS011;20145;43.118;25.694;2023-08-12T03:10:00;3.15;;;2.78;;
33844;SDS011;20145;43.118;25.694;2023-08-12T03:12:25;6.68;;;3.08;;
33844;SDS011;20145;43.118;25.694;2023-08-12T03:14:51;3.10;;;2.80;;
33844;SDS011;20145;43.118;25.694;2023-08-12T03:17:16;2.90;;;2.60;;
33844;SDS011;20145;43.118;25.694;2023-08-12T03:19:42;3.55;;;2.70;;
33844;SDS011;20145;43.118;25.694;2023-08-12T03:22:08;2.60;;;2.40;;
33844;SDS011;20145;43.118;25.694;2023-08-12T03:24:34;3.63;;;2.78;;
33844;SDS011;20145;43.118;25.694;2023-08-12T03:26:59;3.92;;;2.78;;
33844;SDS011;20145;43.118;25.694;2023-08-12T03:29:25;4.32;;;2.95;;
33844;SDS011;20145;43.118;25.694;2023-08-12T03:31:50;3.00;;;2.78;;
33844;SDS011;20145;43.118;25.694;2023-08-12T03:34:17;3.67;;;2.70;;
33844;SDS011;20145;43.118;25.694;2023-08-12T03:36:42;4.95;;;2.75;;
33844;SDS011;20145;43.118;25.694;2023-08-12T03:39:09;2.60;;;2.35;;
33844;SDS011;20145;43.118;25.694;2023-08-12T03:41:35;6.20;;;2.97;;
33844;SDS011;20145;43.118;25.694;2023-08-12T03:44:01;2.78;;;2.47;;
33844;SDS011;20145;43.118;25.694;2023-08-12T03:46:26;3.65;;;2.50;;
33844;SDS011;20145;43.118;25.694;2023-08-12T03:48:53;2.47;;;2.28;;
33844;SDS011;20145;43.118;25.694;2023-08-12T03:51:18;4.28;;;2.13;;
33844;SDS011;20145;43.118;25.694;2023-08-12T03:53:44;4.07;;;2.90;;
33844;SDS011;20145;43.118;25.694;2023-08-12T03:56:09;2.40;;;2.20;;
33844;SDS011;20145;43.118;25.694;2023-08-12T03:58:35;3.20;;;2.45;;
33844;SDS011;20145;43.118;25.694;2023-08-12T04:01:00;2.85;;;2.30;;
33844;SDS011;20145;43.118;25.694;2023-08-12T04:03:26;4.50;;;2.33;;
33844;SDS011;20145;43.118;25.694;2023-08-12T04:05:52;4.18;;;2.55;;
33844;SDS011;20145;43.118;25.694;2023-08-12T04:08:22;5.13;;;2.70;;
33844;SDS011;20145;43.118;25.694;2023-08-12T04:10:50;5.05;;;2.55;;
33844;SDS011;20145;43.118;25.694;2023-08-12T04:13:16;2.75;;;2.42;;
33844;SDS011;20145;43.118;25.694;2023-08-12T04:15:47;2.58;;;2.03;;
33844;SDS011;20145;43.118;25.694;2023-08-12T04:18:16;2.95;;;2.22;;
33844;SDS011;20145;43.118;25.694;2023-08-12T04:20:42;2.30;;;2.10;;
33844;SDS011;20145;43.118;25.694;2023-08-12T04:23:09;5.57;;;2.13;;
33844;SDS011;20145;43.118;25.694;2023-08-12T04:25:36;4.95;;;2.33;;
33844;SDS011;20145;43.118;25.694;2023-08-12T04:28:02;2.50;;;1.92;;
33844;SDS011;20145;43.118;25.694;2023-08-12T04:30:34;2.70;;;2.22;;
33844;SDS011;20145;43.118;25.694;2023-08-12T04:32:59;2.72;;;2.22;;
33844;SDS011;20145;43.118;25.694;2023-08-12T04:35:25;3.80;;;2.35;;
33844;SDS011;20145;43.118;25.694;2023-08-12T04:37:52;3.15;;;2.85;;
33844;SDS011;20145;43.118;25.694;2023-08-12T04:40:17;2.80;;;2.50;;
33844;SDS011;20145;43.118;25.694;2023-08-12T04:42:43;6.25;;;2.47;;
33844;SDS011;20145;43.118;25.694;2023-08-12T04:45:09;7.90;;;2.38;;
33844;SDS011;20145;43.118;25.694;2023-08-12T04:47:36;6.50;;;2.90;;
33844;SDS011;20145;43.118;25.694;2023-08-12T04:50:04;7.75;;;4.15;;
33844;SDS011;20145;43.118;25.694;2023-08-12T04:52:30;6.18;;;3.83;;
33844;SDS011;20145;43.118;25.694;2023-08-12T04:54:55;5.57;;;3.60;;
33844;SDS011;20145;43.118;25.694;2023-08-12T04:57:21;6.40;;;2.85;;
33844;SDS011;20145;43.118;25.694;2023-08-12T04:59:47;4.30;;;2.38;;
33844;SDS011;20145;43.118;25.694;2023-08-12T05:02:13;5.05;;;3.30;;
33844;SDS011;20145;43.118;25.694;2023-08-12T05:04:41;4.43;;;3.00;;
33844;SDS011;20145;43.118;25.694;2023-08-12T05:07:07;14.20;;;10.40;;
33844;SDS011;20145;43.118;25.694;2023-08-12T05:09:34;11.52;;;9.80;;
33844;SDS011;20145;43.118;25.694;2023-08-12T05:12:00;10.73;;;6.80;;
33844;SDS011;20145;43.118;25.694;2023-08-12T05:14:26;11.82;;;5.53;;
33844;SDS011;20145;43.118;25.694;2023-08-12T05:16:51;9.27;;;4.40;;
33844;SDS011;20145;43.118;25.694;2023-08-12T05:19:17;5.63;;;3.90;;
33844;SDS011;20145;43.118;25.694;2023-08-12T05:21:42;7.50;;;4.07;;
33844;SDS011;20145;43.118;25.694;2023-08-12T05:24:08;5.57;;;4.00;;
33844;SDS011;20145;43.118;25.694;2023-08-12T05:29:09;6.65;;;5.05;;
33844;SDS011;20145;43.118;25.694;2023-08-12T05:31:34;9.20;;;6.68;;
33844;SDS011;20145;43.118;25.694;2023-08-12T05:34:00;9.65;;;4.95;;
33844;SDS011;20145;43.118;25.694;2023-08-12T05:36:25;11.85;;;4.78;;
33844;SDS011;20145;43.118;25.694;2023-08-12T05:38:51;6.05;;;3.70;;
33844;SDS011;20145;43.118;25.694;2023-08-12T05:41:17;4.03;;;3.63;;
33844;SDS011;20145;43.118;25.694;2023-08-12T05:43:47;6.65;;;4.32;;
33844;SDS011;20145;43.118;25.694;2023-08-12T05:46:13;5.05;;;4.20;;
33844;SDS011;20145;43.118;25.694;2023-08-12T05:48:39;6.70;;;3.65;;
33844;SDS011;20145;43.118;25.694;2023-08-12T05:51:05;9.02;;;3.95;;
33844;SDS011;20145;43.118;25.694;2023-08-12T05:53:31;4.90;;;2.97;;
33844;SDS011;20145;43.118;25.694;2023-08-12T05:55:58;5.65;;;3.42;;
33844;SDS011;20145;43.118;25.694;2023-08-12T05:58:23;7.88;;;3.50;;
33844;SDS011;20145;43.118;25.694;2023-08-12T06:03:32;7.15;;;3.47;;
33844;SDS011;20145;43.118;25.694;2023-08-12T06:05:58;5.50;;;2.60;;
33844;SDS011;20145;43.118;25.694;2023-08-12T06:08:24;6.93;;;2.70;;
33844;SDS011;20145;43.118;25.694;2023-08-12T06:10:50;3.05;;;2.58;;
33844;SDS011;20145;43.118;25.694;2023-08-12T06:13:15;3.55;;;2.97;;
33844;SDS011;20145;43.118;25.694;2023-08-12T06:15:41;2.90;;;2.70;;
33844;SDS011;20145;43.118;25.694;2023-08-12T06:18:06;4.85;;;3.22;;
33844;SDS011;20145;43.118;25.694;2023-08-12T06:20:32;3.08;;;2.72;;
33844;SDS011;20145;43.118;25.694;2023-08-12T06:22:57;4.72;;;2.95;;
33844;SDS011;20145;43.118;25.694;2023-08-12T06:25:23;4.53;;;2.63;;
33844;SDS011;20145;43.118;25.694;2023-08-12T06:27:48;13.57;;;2.78;;
33844;SDS011;20145;43.118;25.694;2023-08-12T06:30:14;9.48;;;3.08;;
33844;SDS011;20145;43.118;25.694;2023-08-12T06:32:39;4.82;;;2.80;;
33844;SDS011;20145;43.118;25.694;2023-08-12T06:35:05;9.88;;;3.10;;
33844;SDS011;20145;43.118;25.694;2023-08-12T06:37:31;2.50;;;2.30;;
33844;SDS011;20145;43.118;25.694;2023-08-12T06:39:57;2.90;;;2.47;;
33844;SDS011;20145;43.118;25.694;2023-08-12T06:42:22;5.15;;;2.38;;
33844;SDS011;20145;43.118;25.694;2023-08-12T06:44:55;2.70;;;2.50;;
33844;SDS011;20145;43.118;25.694;2023-08-12T06:47:21;10.07;;;3.15;;
33844;SDS011;20145;43.118;25.694;2023-08-12T06:49:47;5.28;;;3.10;;
33844;SDS011;20145;43.118;25.694;2023-08-12T06:52:12;3.95;;;2.60;;
33844;SDS011;20145;43.118;25.694;2023-08-12T06:54:38;6.65;;;2.47;;
33844;SDS011;20145;43.118;25.694;2023-08-12T06:57:03;3.63;;;2.22;;
33844;SDS011;20145;43.118;25.694;2023-08-12T06:59:29;4.10;;;2.25;;
33844;SDS011;20145;43.118;25.694;2023-08-12T07:01:55;4.10;;;2.40;;
33844;SDS011;20145;43.118;25.694;2023-08-12T07:04:20;4.95;;;2.55;;
33844;SDS011;20145;43.118;25.694;2023-08-12T07:06:46;4.93;;;2.80;;
33844;SDS011;20145;43.118;25.694;2023-08-12T07:09:11;3.55;;;2.50;;
33844;SDS011;20145;43.118;25.694;2023-08-12T07:11:37;3.38;;;2.65;;
33844;SDS011;20145;43.118;25.694;2023-08-12T07:14:03;3.50;;;2.58;;
33844;SDS011;20145;43.118;25.694;2023-08-12T07:16:29;3.05;;;2.53;;
33844;SDS011;20145;43.118;25.694;2023-08-12T07:18:54;2.92;;;2.53;;
33844;SDS011;20145;43.118;25.694;2023-08-12T07:21:22;5.47;;;3.30;;
33844;SDS011;20145;43.118;25.694;2023-08-12T07:26:19;2.90;;;2.58;;
33844;SDS011;20145;43.118;25.694;2023-08-12T07:28:45;5.00;;;2.65;;
33844;SDS011;20145;43.118;25.694;2023-08-12T07:31:18;3.47;;;2.60;;
33844;SDS011;20145;43.118;25.694;2023-08-12T07:42:42;6.10;;;2.50;;
33844;SDS011;20145;43.118;25.694;2023-08-12T07:45:14;2.83;;;2.40;;
33844;SDS011;20145;43.118;25.694;2023-08-12T07:47:56;2.45;;;1.92;;
33844;SDS011;20145;43.118;25.694;2023-08-12T07:50:23;5.10;;;2.60;;
33844;SDS011;20145;43.118;25.694;2023-08-12T07:52:53;6.80;;;2.35;;
33844;SDS011;20145;43.118;25.694;2023-08-12T07:55:19;3.97;;;2.30;;
33844;SDS011;20145;43.118;25.694;2023-08-12T07:57:54;3.13;;;2.70;;
33844;SDS011;20145;43.118;25.694;2023-08-12T08:05:55;2.77;;;2.40;;
33844;SDS011;20145;43.118;25.694;2023-08-12T08:23:24;2.33;;;2.08;;
33844;SDS011;20145;43.118;25.694;2023-08-12T08:34:47;4.22;;;2.25;;
33844;SDS011;20145;43.118;25.694;2023-08-12T08:37:22;6.55;;;2.22;;
33844;SDS011;20145;43.118;25.694;2023-08-12T08:42:55;3.63;;;2.60;;
33844;SDS011;20145;43.118;25.694;2023-08-12T08:48:14;4.22;;;2.20;;
33844;SDS011;20145;43.118;25.694;2023-08-12T08:50:41;3.33;;;2.10;;
33844;SDS011;20145;43.118;25.694;2023-08-12T08:59:15;3.00;;;2.28;;
33844;SDS011;20145;43.118;25.694;2023-08-12T09:04:45;3.78;;;2.42;;
33844;SDS011;20145;43.118;25.694;2023-08-12T09:10:33;3.95;;;3.55;;
33844;SDS011;20145;43.118;25.694;2023-08-12T09:16:23;7.25;;;2.47;;
33844;SDS011;20145;43.118;25.694;2023-08-12T09:19:01;6.32;;;3.03;;
33844;SDS011;20145;43.118;25.694;2023-08-12T09:24:16;3.05;;;2.33;;
33844;SDS011;20145;43.118;25.694;2023-08-12T09:38:36;7.15;;;2.55;;
33844;SDS011;20145;43.118;25.694;2023-08-12T09:41:02;2.90;;;2.45;;
33844;SDS011;20145;43.118;25.694;2023-08-12T09:43:27;3.33;;;2.53;;
33844;SDS011;20145;43.118;25.694;2023-08-12T09:45:55;2.85;;;2.28;;
33844;SDS011;20145;43.118;25.694;2023-08-12T09:48:22;2.67;;;2.17;;
33844;SDS011;20145;43.118;25.694;2023-08-12T09:50:49;2.78;;;2.22;;
33844;SDS011;20145;43.118;25.694;2023-08-12T09:53:16;3.17;;;2.42;;
33844;SDS011;20145;43.118;25.694;2023-08-12T09:55:43;2.97;;;2.65;;
33844;SDS011;20145;43.118;25.694;2023-08-12T09:58:12;4.63;;;2.33;;
33844;SDS011;20145;43.118;25.694;2023-08-12T10:00:41;3.50;;;2.60;;
33844;SDS011;20145;43.118;25.694;2023-08-12T10:03:07;4.75;;;2.92;;
33844;SDS011;20145;43.118;25.694;2023-08-12T10:05:35;4.18;;;2.20;;
33844;SDS011;20145;43.118;25.694;2023-08-12T10:08:02;3.42;;;2.65;;
33844;SDS011;20145;43.118;25.694;2023-08-12T10:10:30;4.45;;;2.20;;
33844;SDS011;20145;43.118;25.694;2023-08-12T10:12:59;3.30;;;2.45;;
33844;SDS011;20145;43.118;25.694;2023-08-12T10:15:24;3.58;;;2.40;;
33844;SDS011;20145;43.118;25.694;2023-08-12T10:17:52;3.55;;;2.53;;
33844;SDS011;20145;43.118;25.694;2023-08-12T10:20:20;3.45;;;2.67;;
33844;SDS011;20145;43.118;25.694;2023-08-12T10:22:49;3.95;;;2.45;;
33844;SDS011;20145;43.118;25.694;2023-08-12T10:25:17;5.63;;;2.60;;
33844;SDS011;20145;43.118;25.694;2023-08-12T10:27:44;2.42;;;2.20;;
33844;SDS011;20145;43.118;25.694;2023-08-12T10:30:10;4.80;;;2.55;;
33844;SDS011;20145;43.118;25.694;2023-08-12T10:32:38;3.53;;;2.50;;
33844;SDS011;20145;43.118;25.694;2023-08-12T10:35:04;2.67;;;2.47;;
33844;SDS011;20145;43.118;25.694;2023-08-12T10:37:32;4.63;;;2.70;;
33844;SDS011;20145;43.118;25.694;2023-08-12T10:39:58;4.50;;;2.50;;
33844;SDS011;20145;43.118;25.694;2023-08-12T10:42:43;5.93;;;2.60;;
33844;SDS011;20145;43.118;25.694;2023-08-12T10:45:10;4.28;;;2.45;;
33844;SDS011;20145;43.118;25.694;2023-08-12T10:47:39;3.42;;;2.20;;
33844;SDS011;20145;43.118;25.694;2023-08-12T10:50:26;4.70;;;2.67;;
33844;SDS011;20145;43.118;25.694;2023-08-12T10:52:52;5.97;;;2.63;;
33844;SDS011;20145;43.118;25.694;2023-08-12T10:57:49;5.13;;;2.60;;
33844;SDS011;20145;43.118;25.694;2023-08-12T11:00:17;4.93;;;2.90;;
33844;SDS011;20145;43.118;25.694;2023-08-12T11:02:51;4.13;;;2.40;;
33844;SDS011;20145;43.118;25.694;2023-08-12T11:05:19;3.45;;;2.30;;
33844;SDS011;20145;43.118;25.694;2023-08-12T11:07:46;3.80;;;2.17;;
33844;SDS011;20145;43.118;25.694;2023-08-12T11:10:17;4.93;;;2.40;;
33844;SDS011;20145;43.118;25.694;2023-08-12T11:12:48;5.40;;;2.33;;
33844;SDS011;20145;43.118;25.694;2023-08-12T11:15:52;4.22;;;2.65;;
33844;SDS011;20145;43.118;25.694;2023-08-12T11:18:19;3.95;;;2.90;;
33844;SDS011;20145;43.118;25.694;2023-08-12T11:20:48;3.78;;;3.17;;
33844;SDS011;20145;43.118;25.694;2023-08-12T11:23:16;4.85;;;3.83;;
33844;SDS011;20145;43.118;25.694;2023-08-12T11:25:42;6.18;;;2.90;;
33844;SDS011;20145;43.118;25.694;2023-08-12T11:28:09;5.90;;;3.42;;
33844;SDS011;20145;43.118;25.694;2023-08-12T11:30:35;3.83;;;3.35;;
33844;SDS011;20145;43.118;25.694;2023-08-12T11:33:01;4.60;;;3.40;;
33844;SDS011;20145;43.118;25.694;2023-08-12T11:35:27;7.20;;;3.20;;
33844;SDS011;20145;43.118;25.694;2023-08-12T11:37:55;5.22;;;3.30;;
33844;SDS011;20145;43.118;25.694;2023-08-12T11:40:21;6.32;;;2.80;;
33844;SDS011;20145;43.118;25.694;2023-08-12T11:42:49;5.57;;;2.70;;
33844;SDS011;20145;43.118;25.694;2023-08-12T11:45:16;4.38;;;3.10;;
33844;SDS011;20145;43.118;25.694;2023-08-12T11:47:43;3.53;;;3.22;;
33844;SDS011;20145;43.118;25.694;2023-08-12T11:50:11;4.55;;;2.80;;
33844;SDS011;20145;43.118;25.694;2023-08-12T11:52:38;4.15;;;2.80;;
33844;SDS011;20145;43.118;25.694;2023-08-12T11:55:04;2.83;;;2.30;;
33844;SDS011;20145;43.118;25.694;2023-08-12T11:57:31;3.47;;;2.20;;
33844;SDS011;20145;43.118;25.694;2023-08-12T12:00:02;3.83;;;2.15;;
33844;SDS011;20145;43.118;25.694;2023-08-12T12:02:45;2.95;;;2.65;;
33844;SDS011;20145;43.118;25.694;2023-08-12T12:05:14;3.13;;;2.53;;
33844;SDS011;20145;43.118;25.694;2023-08-12T12:07:42;3.85;;;2.60;;
33844;SDS011;20145;43.118;25.694;2023-08-12T12:10:12;3.40;;;2.45;;
33844;SDS011;20145;43.118;25.694;2023-08-12T12:12:46;3.00;;;2.28;;
33844;SDS011;20145;43.118;25.694;2023-08-12T12:15:14;6.28;;;2.58;;
33844;SDS011;20145;43.118;25.694;2023-08-12T12:17:47;2.45;;;2.25;;
33844;SDS011;20145;43.118;25.694;2023-08-12T12:20:13;3.23;;;2.60;;
33844;SDS011;20145;43.118;25.694;2023-08-12T12:22:40;4.25;;;3.03;;
33844;SDS011;20145;43.118;25.694;2023-08-12T12:25:10;2.75;;;2.42;;
33844;SDS011;20145;43.118;25.694;2023-08-12T12:27:42;8.13;;;2.85;;
33844;SDS011;20145;43.118;25.694;2023-08-12T12:30:09;3.92;;;2.90;;
33844;SDS011;20145;43.118;25.694;2023-08-12T12:32:36;3.30;;;2.15;;
33844;SDS011;20145;43.118;25.694;2023-08-12T12:35:02;2.47;;;2.28;;
33844;SDS011;20145;43.118;25.694;2023-08-12T12:37:29;4.13;;;2.30;;
33844;SDS011;20145;43.118;25.694;2023-08-12T12:39:55;4.40;;;2.75;;
33844;SDS011;20145;43.118;25.694;2023-08-12T12:42:21;5.63;;;2.30;;
33844;SDS011;20145;43.118;25.694;2023-08-12T12:44:46;4.35;;;2.30;;
33844;SDS011;20145;43.118;25.694;2023-08-12T12:47:12;3.22;;;2.25;;
33844;SDS011;20145;43.118;25.694;2023-08-12T12:49:38;3.28;;;2.53;;
33844;SDS011;20145;43.118;25.694;2023-08-12T12:52:06;3.72;;;2.53;;
33844;SDS011;20145;43.118;25.694;2023-08-12T12:54:31;3.08;;;1.98;;
33844;SDS011;20145;43.118;25.694;2023-08-12T12:56:57;3.25;;;2.83;;
33844;SDS011;20145;43.118;25.694;2023-08-12T12:59:23;2.58;;;2.25;;
33844;SDS011;20145;43.118;25.694;2023-08-12T13:01:49;2.67;;;2.10;;
33844;SDS011;20145;43.118;25.694;2023-08-12T13:04:14;4.72;;;2.40;;
33844;SDS011;20145;43.118;25.694;2023-08-12T13:06:40;2.58;;;2.28;;
33844;SDS011;20145;43.118;25.694;2023-08-12T13:09:06;2.47;;;2.25;;
33844;SDS011;20145;43.118;25.694;2023-08-12T13:11:33;3.47;;;2.28;;
33844;SDS011;20145;43.118;25.694;2023-08-12T13:14:00;3.20;;;2.60;;
33844;SDS011;20145;43.118;25.694;2023-08-12T13:16:26;5.93;;;2.80;;
33844;SDS011;20145;43.118;25.694;2023-08-12T13:18:52;3.17;;;2.30;;
33844;SDS011;20145;43.118;25.694;2023-08-12T13:21:18;3.42;;;2.47;;
33844;SDS011;20145;43.118;25.694;2023-08-12T13:23:44;6.20;;;2.70;;
33844;SDS011;20145;43.118;25.694;2023-08-12T13:26:10;7.00;;;2.60;;
33844;SDS011;20145;43.118;25.694;2023-08-12T13:28:37;4.43;;;2.83;;
33844;SDS011;20145;43.118;25.694;2023-08-12T13:31:03;4.35;;;2.63;;
33844;SDS011;20145;43.118;25.694;2023-08-12T13:33:30;2.80;;;2.22;;
33844;SDS011;20145;43.118;25.694;2023-08-12T13:35:55;3.70;;;2.30;;
33844;SDS011;20145;43.118;25.694;2023-08-12T13:38:21;2.65;;;2.45;;
33844;SDS011;20145;43.118;25.694;2023-08-12T13:40:47;3.30;;;2.42;;
33844;SDS011;20145;43.118;25.694;2023-08-12T13:43:13;2.47;;;2.28;;
33844;SDS011;20145;43.118;25.694;2023-08-12T13:45:40;3.85;;;2.40;;
33844;SDS011;20145;43.118;25.694;2023-08-12T13:48:05;3.92;;;2.30;;
33844;SDS011;20145;43.118;25.694;2023-08-12T13:50:32;4.07;;;2.67;;
33844;SDS011;20145;43.118;25.694;2023-08-12T13:52:58;2.50;;;2.10;;
33844;SDS011;20145;43.118;25.694;2023-08-12T13:55:27;2.60;;;1.98;;
33844;SDS011;20145;43.118;25.694;2023-08-12T13:57:52;4.88;;;2.40;;
33844;SDS011;20145;43.118;25.694;2023-08-12T14:00:18;4.60;;;2.88;;
33844;SDS011;20145;43.118;25.694;2023-08-12T14:02:44;3.70;;;2.50;;
33844;SDS011;20145;43.118;25.694;2023-08-12T14:05:10;5.03;;;2.83;;
33844;SDS011;20145;43.118;25.694;2023-08-12T14:07:37;2.95;;;2.67;;
33844;SDS011;20145;43.118;25.694;2023-08-12T14:10:03;3.92;;;3.28;;
33844;SDS011;20145;43.118;25.694;2023-08-12T14:12:29;3.95;;;3.28;;
33844;SDS011;20145;43.118;25.694;2023-08-12T14:14:55;4.05;;;3.50;;
33844;SDS011;20145;43.118;25.694;2023-08-12T14:17:21;3.65;;;3.08;;
33844;SDS011;20145;43.118;25.694;2023-08-12T14:19:48;4.47;;;2.97;;
33844;SDS011;20145;43.118;25.694;2023-08-12T14:22:16;5.22;;;3.30;;
33844;SDS011;20145;43.118;25.694;2023-08-12T14:24:41;5.50;;;2.88;;
33844;SDS011;20145;43.118;25.694;2023-08-12T14:27:09;3.05;;;2.75;;
33844;SDS011;20145;43.118;25.694;2023-08-12T14:29:34;5.78;;;3.28;;
33844;SDS011;20145;43.118;25.694;2023-08-12T14:32:00;5.07;;;3.30;;
33844;SDS011;20145;43.118;25.694;2023-08-12T14:34:26;4.32;;;3.60;;
33844;SDS011;20145;43.118;25.694;2023-08-12T14:36:52;4.55;;;3.95;;
33844;SDS011;20145;43.118;25.694;2023-08-12T14:39:18;4.60;;;3.20;;
33844;SDS011;20145;43.118;25.694;2023-08-12T14:41:43;4.90;;;2.70;;
33844;SDS011;20145;43.118;25.694;2023-08-12T14:44:09;4.35;;;2.97;;
33844;SDS011;20145;43.118;25.694;2023-08-12T14:46:34;9.82;;;2.72;;
33844;SDS011;20145;43.118;25.694;2023-08-12T14:49:00;3.88;;;3.00;;
33844;SDS011;20145;43.118;25.694;2023-08-12T14:51:25;3.40;;;3.10;;
33844;SDS011;20145;43.118;25.694;2023-08-12T14:53:51;3.20;;;2.90;;
33844;SDS011;20145;43.118;25.694;2023-08-12T14:56:17;5.45;;;3.60;;
33844;SDS011;20145;43.118;25.694;2023-08-12T14:58:43;5.00;;;3.00;;
33844;SDS011;20145;43.118;25.694;2023-08-12T15:01:08;3.40;;;3.00;;
33844;SDS011;20145;43.118;25.694;2023-08-12T15:03:34;3.47;;;3.00;;
33844;SDS011;20145;43.118;25.694;2023-08-12T15:06:00;3.40;;;2.65;;
33844;SDS011;20145;43.118;25.694;2023-08-12T15:08:26;3.53;;;2.90;;
33844;SDS011;20145;43.118;25.694;2023-08-12T15:10:52;5.05;;;3.10;;
33844;SDS011;20145;43.118;25.694;2023-08-12T15:13:17;3.95;;;2.83;;
33844;SDS011;20145;43.118;25.694;2023-08-12T15:15:46;4.75;;;3.00;;
33844;SDS011;20145;43.118;25.694;2023-08-12T15:18:12;7.13;;;3.15;;
33844;SDS011;20145;43.118;25.694;2023-08-12T15:20:58;4.18;;;3.05;;
33844;SDS011;20145;43.118;25.694;2023-08-12T15:23:23;5.45;;;2.80;;
33844;SDS011;20145;43.118;25.694;2023-08-12T15:25:51;4.05;;;3.55;;
33844;SDS011;20145;43.118;25.694;2023-08-12T15:28:17;4.85;;;3.25;;
33844;SDS011;20145;43.118;25.694;2023-08-12T15:30:42;3.35;;;3.05;;
33844;SDS011;20145;43.118;25.694;2023-08-12T15:33:09;4.20;;;3.30;;
33844;SDS011;20145;43.118;25.694;2023-08-12T15:35:35;5.30;;;3.13;;
33844;SDS011;20145;43.118;25.694;2023-08-12T15:38:01;3.80;;;2.88;;
33844;SDS011;20145;43.118;25.694;2023-08-12T15:40:27;16.17;;;3.72;;
33844;SDS011;20145;43.118;25.694;2023-08-12T15:42:52;3.78;;;2.88;;
33844;SDS011;20145;43.118;25.694;2023-08-12T15:45:18;3.17;;;2.88;;
33844;SDS011;20145;43.118;25.694;2023-08-12T15:47:43;8.15;;;3.22;;
33844;SDS011;20145;43.118;25.694;2023-08-12T15:50:09;10.25;;;3.78;;
33844;SDS011;20145;43.118;25.694;2023-08-12T15:52:34;3.95;;;2.70;;
33844;SDS011;20145;43.118;25.694;2023-08-12T15:55:01;2.92;;;2.63;;
33844;SDS011;20145;43.118;25.694;2023-08-12T15:57:30;4.40;;;2.53;;
33844;SDS011;20145;43.118;25.694;2023-08-12T15:59:56;3.58;;;3.25;;
33844;SDS011;20145;43.118;25.694;2023-08-12T16:02:23;6.80;;;3.72;;